createdAt,value
2018-09-13T00:03:50.811Z,3.37
2018-09-13T00:09:45.829Z,2.82
2018-09-13T00:15:40.827Z,3.16
2018-09-13T00:21:35.827Z,3.26
2018-09-13T00:27:30.847Z,3.34
2018-09-13T00:33:25.868Z,3.25
2018-09-13T00:39:20.844Z,3.32
2018-09-13T00:45:15.837Z,3.6
2018-09-13T00:51:10.868Z,3.36
2018-09-13T00:57:05.866Z,3.12
2018-09-13T01:03:00.869Z,2.92
2018-09-13T01:08:55.861Z,3.05
2018-09-13T01:14:50.868Z,3.16
2018-09-13T01:20:45.885Z,3.34
2018-09-13T01:26:40.901Z,3.13
2018-09-13T01:32:35.897Z,3.51
2018-09-13T01:38:30.904Z,3.13
2018-09-13T01:44:25.898Z,3.67
2018-09-13T01:50:20.928Z,3.31
2018-09-13T01:56:15.922Z,3.25
2018-09-13T02:02:10.925Z,3.26
2018-09-13T02:08:05.925Z,3.16
2018-09-13T02:14:00.925Z,3.1
2018-09-13T02:19:55.977Z,3.32
2018-09-13T02:25:50.964Z,3.6
2018-09-13T02:31:45.943Z,3.04
2018-09-13T02:37:40.969Z,3.32
2018-09-13T02:43:35.961Z,3.53
2018-09-13T02:49:30.988Z,3
2018-09-13T02:55:25.976Z,3.61
2018-09-13T03:01:20.994Z,3.42
2018-09-13T03:07:15.965Z,3.5
2018-09-13T03:13:10.989Z,3.94
2018-09-13T03:19:05.973Z,3.23
2018-09-13T03:25:00.990Z,3.7
2018-09-13T03:30:55.996Z,3.18
2018-09-13T03:36:51.000Z,3.48
2018-09-13T03:42:46.014Z,3.37
2018-09-13T03:48:41.018Z,3.66
2018-09-13T03:54:36.069Z,3.54
2018-09-13T04:00:31.046Z,3.9
2018-09-13T04:06:26.028Z,3.56
2018-09-13T04:12:21.040Z,3.4
2018-09-13T04:18:16.039Z,4.78
2018-09-13T04:24:11.089Z,4.01
2018-09-13T04:30:06.057Z,3.72
2018-09-13T04:36:01.189Z,3.67
2018-09-13T04:41:56.073Z,4.01
2018-09-13T04:47:51.107Z,3.82
2018-09-13T04:53:46.085Z,4.08
2018-09-13T04:59:41.096Z,4.22
2018-09-13T05:05:36.091Z,5.54
2018-09-13T05:11:31.153Z,6.53
2018-09-13T05:17:26.101Z,6.43
2018-09-13T05:23:21.118Z,5.59
2018-09-13T05:29:16.155Z,6.46
2018-09-13T05:35:11.161Z,6.84
2018-09-13T05:41:06.121Z,5.98
2018-09-13T05:47:01.129Z,5.84
2018-09-13T05:52:56.140Z,6.16
2018-09-13T05:58:51.150Z,6.32
2018-09-13T06:04:46.160Z,6.68
2018-09-13T06:10:41.188Z,7.01
2018-09-13T06:16:36.193Z,6.87
2018-09-13T06:22:31.170Z,6.62
2018-09-13T06:28:26.205Z,8.45
2018-09-13T06:34:21.180Z,8.67
2018-09-13T06:40:16.228Z,7.64
2018-09-13T06:46:11.186Z,5.57
2018-09-13T06:52:06.219Z,5.71
2018-09-13T06:58:01.186Z,5.84
2018-09-13T07:03:56.232Z,6.08
2018-09-13T07:09:51.223Z,5.9
2018-09-13T07:15:46.274Z,5.96
2018-09-13T07:21:41.246Z,5.56
2018-09-13T07:27:36.306Z,5.58
2018-09-13T07:33:31.253Z,5.78
2018-09-13T07:39:26.286Z,6.14
2018-09-13T07:45:21.254Z,6.89
2018-09-13T07:51:16.282Z,6.54
2018-09-13T07:57:11.243Z,5.86
2018-09-13T08:03:06.252Z,5.93
2018-09-13T08:09:01.259Z,6.46
2018-09-13T08:14:56.300Z,5.87
2018-09-13T08:20:51.304Z,6.83
2018-09-13T08:26:46.274Z,6.18
2018-09-13T08:32:41.317Z,6.11
2018-09-13T08:38:36.318Z,5.72
2018-09-13T08:44:31.299Z,6.29
2018-09-13T08:50:26.306Z,6.03
2018-09-13T08:56:21.313Z,6.57
2018-09-13T09:02:16.313Z,6.41
2018-09-13T09:08:11.306Z,8.87
2018-09-13T09:14:06.316Z,8.96
2018-09-13T09:20:01.336Z,9.55
2018-09-13T09:25:56.341Z,9.21
2018-09-13T09:31:51.353Z,8.4
2018-09-13T09:37:46.339Z,8.87
2018-09-13T09:43:41.379Z,8.27
2018-09-13T09:49:36.369Z,8.92
2018-09-13T09:55:31.412Z,9.33
2018-09-13T10:01:26.374Z,9.23
2018-09-13T10:07:21.389Z,9.57
2018-09-13T10:13:16.415Z,10.01
2018-09-13T10:19:11.381Z,9.39
2018-09-13T10:25:06.427Z,8.61
2018-09-13T10:31:01.413Z,8.42
2018-09-13T10:36:56.424Z,8.4
2018-09-13T10:42:51.477Z,8.94
2018-09-13T10:48:46.511Z,7.42
2018-09-13T10:54:41.435Z,8.07
2018-09-13T11:00:36.438Z,8.28
2018-09-13T11:06:31.541Z,7.23
2018-09-13T11:12:26.501Z,7.55
2018-09-13T11:18:21.466Z,8.26
2018-09-13T11:24:16.445Z,9.12
2018-09-13T11:30:11.506Z,7.65
2018-09-13T11:34:31.564Z,8.68
2018-09-13T11:40:26.599Z,8.36
2018-09-13T11:46:21.521Z,7.3
2018-09-13T11:52:16.552Z,8.14
2018-09-13T11:58:11.529Z,8.33
2018-09-13T12:04:06.538Z,6.82
2018-09-13T12:10:01.619Z,8.11
2018-09-13T12:15:56.569Z,6.94
2018-09-13T12:21:51.547Z,7.07
2018-09-13T12:27:46.609Z,5.32
2018-09-13T12:33:41.601Z,5.65
2018-09-13T12:39:36.616Z,6.5
2018-09-13T12:45:31.568Z,6.48
2018-09-13T12:51:26.673Z,5.84
2018-09-13T12:57:21.824Z,6.28
2018-09-13T13:03:16.662Z,6.41
2018-09-13T13:09:11.625Z,6.63
2018-09-13T13:15:06.718Z,6.19
2018-09-13T13:21:01.611Z,5.23
2018-09-13T13:26:56.621Z,5.33
2018-09-13T13:32:51.644Z,5.89
2018-09-13T13:38:46.640Z,6
2018-09-13T13:44:41.705Z,6.27
2018-09-13T13:50:36.703Z,5.53
2018-09-13T13:56:31.642Z,6.08
2018-09-13T14:02:26.640Z,5.89
2018-09-13T14:08:21.683Z,5.66
2018-09-13T14:14:16.649Z,5.27
2018-09-13T14:20:11.667Z,5.71
2018-09-13T14:26:06.694Z,5.44
2018-09-13T14:32:01.676Z,5.21
2018-09-13T14:37:56.690Z,5.22
2018-09-13T14:43:51.702Z,5.42
2018-09-13T14:49:46.703Z,5.33
2018-09-13T14:55:41.718Z,5.7
2018-09-13T15:01:36.707Z,5.91
2018-09-13T15:07:31.756Z,6.19
2018-09-13T15:13:26.714Z,5.97
2018-09-13T15:19:21.730Z,5.97
2018-09-13T15:25:16.732Z,6.36
2018-09-13T15:31:11.804Z,6.47
2018-09-13T15:37:06.848Z,5.66
2018-09-13T15:43:01.835Z,5.73
2018-09-13T15:48:56.744Z,5.52
2018-09-13T15:54:51.851Z,5.94
2018-09-13T16:00:46.787Z,5.52
2018-09-13T16:06:41.774Z,5.78
2018-09-13T16:12:36.928Z,5.87
2018-09-13T16:18:31.785Z,5.92
2018-09-13T16:24:26.785Z,7.02
2018-09-13T16:30:21.855Z,6.67
2018-09-13T16:36:16.803Z,5.67
2018-09-13T16:42:11.796Z,6.14
2018-09-13T16:48:06.811Z,6.34
2018-09-13T16:54:01.854Z,6.61
2018-09-13T16:59:56.827Z,6.37
2018-09-13T17:05:51.839Z,6.1
2018-09-13T17:11:46.894Z,7.02
2018-09-13T17:17:41.851Z,7.14
2018-09-13T17:23:36.851Z,6.67
2018-09-13T17:29:31.865Z,7.57
2018-09-13T17:35:26.859Z,8.44
2018-09-13T17:41:21.897Z,6.42
2018-09-13T17:47:16.864Z,7.61
2018-09-13T17:53:11.896Z,7.65
2018-09-13T17:59:06.882Z,7.38
2018-09-13T18:05:02.038Z,7.27
2018-09-13T18:10:56.928Z,6.58
2018-09-13T18:16:51.908Z,6.43
2018-09-13T18:22:46.907Z,6.38
2018-09-13T18:28:41.935Z,7.29
2018-09-13T18:34:36.916Z,7.06
2018-09-13T18:40:31.920Z,6.65
2018-09-13T18:46:26.940Z,7.89
2018-09-13T18:52:21.916Z,6.83
2018-09-13T18:58:16.942Z,7.5
2018-09-13T19:04:11.940Z,7.16
2018-09-13T19:10:06.974Z,7.42
2018-09-13T19:16:01.963Z,7.73
2018-09-13T19:21:57.017Z,7.63
2018-09-13T19:27:51.957Z,8.38
2018-09-13T19:33:46.989Z,7.61
2018-09-13T19:39:42.157Z,7.81
2018-09-13T19:45:36.994Z,8.11
2018-09-13T19:51:32.014Z,7.92
2018-09-13T19:57:27.006Z,7.76
2018-09-13T20:03:22.007Z,9.49
2018-09-13T20:09:16.992Z,7.06
2018-09-13T20:15:12.004Z,8.11
2018-09-13T20:21:07.033Z,8.33
2018-09-13T20:27:02.018Z,30
2018-09-13T20:32:57.054Z,9.03
2018-09-13T20:38:52.052Z,8.11
2018-09-13T20:44:47.043Z,7.93
2018-09-13T20:50:42.044Z,7.73
2018-09-13T20:56:37.104Z,7.23
2018-09-13T21:02:32.057Z,7.76
2018-09-13T21:08:27.123Z,7.65
2018-09-13T21:14:22.080Z,7.85
2018-09-13T21:20:17.126Z,8.01
2018-09-13T21:26:12.095Z,7.11
2018-09-13T21:32:07.101Z,7.2
2018-09-13T21:38:02.118Z,7.48
2018-09-13T21:43:57.151Z,6.98
2018-09-13T21:49:52.121Z,7.59
2018-09-13T21:55:47.123Z,7.83
2018-09-13T22:01:42.126Z,7.66
2018-09-13T22:07:37.135Z,7.33
2018-09-13T22:13:32.112Z,7.21
2018-09-13T22:19:27.124Z,7.04
2018-09-13T22:25:22.131Z,7.54
2018-09-13T22:31:17.148Z,7.14
2018-09-13T22:37:12.214Z,7.28
2018-09-13T22:43:07.159Z,7.34
2018-09-13T22:49:02.170Z,6.78
2018-09-13T22:54:57.150Z,6.93
2018-09-13T23:00:52.172Z,6.97
2018-09-13T23:06:47.192Z,7.23
2018-09-13T23:12:42.202Z,6.98
2018-09-13T23:18:37.225Z,7.09
2018-09-13T23:24:32.241Z,7.31
2018-09-13T23:30:27.198Z,7.09
2018-09-13T23:36:22.210Z,6.69
2018-09-13T23:42:17.251Z,6.93
2018-09-13T23:48:12.220Z,6.67
2018-09-13T23:54:07.328Z,7.31
